Alton, Missouri
Current Conditions -  °F | °C
As of 9:53 AM on Friday 21 Nov 2014 (Local Time) from KUNO Reporting Station
Overcast Overcast  
Wind Chill: 31°   Ceiling: 2500
Heat Index: 38°   Visibility: 10mi
Dew Point: 23°   Wind: 10mph
Humidity: 55%   Direction: 110°ESE
Pressure: 30.33"   Gusts: NA
Location:  36.69°N, 91.4°W
Report Text: KUNO 211553Z AUTO 11009KT 10SM OVC025 03/M05 A3033 RMK AO2 SLP278 T00331050
Loading
Personal Weather Stations






























Interactive Weather Map New forecast layout! Learn more

10-Day Weather Forecast

Advertisements
Track Severe Weather on mobile